createdAt,value
2023-05-19T00:00:53.226Z,20.19
2023-05-19T00:01:52.000Z,20.19
2023-05-19T00:02:52.963Z,20.19
2023-05-19T00:03:52.284Z,20.19
2023-05-19T00:04:52.396Z,20.19
2023-05-19T00:05:52.309Z,20.19
2023-05-19T00:06:52.287Z,20.19
2023-05-19T00:07:53.141Z,20.18
2023-05-19T00:08:52.401Z,20.18
2023-05-19T00:09:52.492Z,20.19
2023-05-19T00:10:53.464Z,20.18
2023-05-19T00:11:52.264Z,20.18
2023-05-19T00:12:53.772Z,20.18
2023-05-19T00:13:52.450Z,20.17
2023-05-19T00:14:52.417Z,20.18
2023-05-19T00:15:53.621Z,20.18
2023-05-19T00:16:52.608Z,20.17
2023-05-19T00:17:52.521Z,20.17
2023-05-19T00:18:52.469Z,20.18
2023-05-19T00:19:53.633Z,20.17
2023-05-19T00:20:52.707Z,20.17
2023-05-19T00:21:53.698Z,20.17
2023-05-19T00:22:53.765Z,20.17
2023-05-19T00:23:53.620Z,20.16
2023-05-19T00:24:53.637Z,20.17
2023-05-19T00:25:52.648Z,20.17
2023-05-19T00:26:52.665Z,20.17
2023-05-19T00:27:52.691Z,20.17
2023-05-19T00:28:52.789Z,20.16
2023-05-19T00:29:53.060Z,20.16
2023-05-19T00:30:52.792Z,20.16
2023-05-19T00:31:53.035Z,20.16
2023-05-19T00:32:52.924Z,20.16
2023-05-19T00:33:54.101Z,20.16
2023-05-19T00:34:53.101Z,20.15
2023-05-19T00:35:53.920Z,20.15
2023-05-19T00:36:53.214Z,20.15
2023-05-19T00:37:54.232Z,20.16
2023-05-19T00:38:54.122Z,20.15
2023-05-19T00:39:53.211Z,20.15
2023-05-19T00:40:53.368Z,20.15
2023-05-19T00:41:53.132Z,20.15
2023-05-19T00:42:54.178Z,20.15
2023-05-19T00:43:54.491Z,20.15
2023-05-19T00:44:54.515Z,20.15
2023-05-19T00:45:54.302Z,20.14
2023-05-19T00:46:54.515Z,20.15
2023-05-19T00:47:54.679Z,20.14
2023-05-19T00:48:53.529Z,20.15
2023-05-19T00:49:53.540Z,20.14
2023-05-19T00:50:54.679Z,20.14
2023-05-19T00:51:53.438Z,20.14
2023-05-19T00:52:54.778Z,20.14
2023-05-19T00:53:53.585Z,20.14
2023-05-19T00:54:54.171Z,20.14
2023-05-19T00:55:53.602Z,20.14
2023-05-19T00:56:53.842Z,20.14
2023-05-19T00:57:54.682Z,20.13
2023-05-19T00:58:53.893Z,20.13
2023-05-19T00:59:53.769Z,20.13
2023-05-19T01:00:54.878Z,20.13
2023-05-19T01:01:54.978Z,20.13
2023-05-19T01:02:55.028Z,20.13
2023-05-19T01:03:53.925Z,20.13
2023-05-19T01:04:54.220Z,20.12
2023-05-19T01:05:54.221Z,20.12
2023-05-19T01:06:53.991Z,20.12
2023-05-19T01:07:54.380Z,20.12
2023-05-19T01:08:54.213Z,20.12
2023-05-19T01:09:54.065Z,20.12
2023-05-19T01:10:54.208Z,20.12
2023-05-19T01:11:55.406Z,20.11
2023-05-19T01:12:54.153Z,20.12
2023-05-19T01:13:54.356Z,20.11
2023-05-19T01:14:55.415Z,20.11
2023-05-19T01:15:54.259Z,20.11
2023-05-19T01:16:55.422Z,20.11
2023-05-19T01:17:54.765Z,20.11
2023-05-19T01:18:55.535Z,20.11
2023-05-19T01:19:55.456Z,20.10
2023-05-19T01:20:54.447Z,20.11
2023-05-19T01:21:55.507Z,20.11
2023-05-19T01:22:55.630Z,20.10
2023-05-19T01:23:55.723Z,20.10
2023-05-19T01:24:55.712Z,20.10
2023-05-19T01:25:55.793Z,20.10
2023-05-19T01:26:55.862Z,20.09
2023-05-19T01:27:54.901Z,20.09
2023-05-19T01:28:54.788Z,20.09
2023-05-19T01:29:54.753Z,20.09
2023-05-19T01:30:54.777Z,20.09
2023-05-19T01:31:55.920Z,20.09
2023-05-19T01:32:56.291Z,20.08
2023-05-19T01:33:54.887Z,20.10
2023-05-19T01:34:55.034Z,20.08
2023-05-19T01:35:54.958Z,20.08
2023-05-19T01:36:56.135Z,20.08
2023-05-19T01:37:56.253Z,20.08
2023-05-19T01:38:56.072Z,20.08
2023-05-19T01:39:55.267Z,20.08
2023-05-19T01:40:56.266Z,20.08
2023-05-19T01:41:55.323Z,20.07
2023-05-19T01:42:57.402Z,20.08
2023-05-19T01:43:55.511Z,20.08
2023-05-19T01:44:56.796Z,20.07
2023-05-19T01:45:56.685Z,20.07
2023-05-19T01:46:55.607Z,20.07
2023-05-19T01:47:55.578Z,20.07
2023-05-19T01:48:56.774Z,20.07
2023-05-19T01:49:56.802Z,20.07
2023-05-19T01:50:56.623Z,20.07
2023-05-19T01:51:55.657Z,20.07
2023-05-19T01:52:56.690Z,20.06
2023-05-19T01:53:56.718Z,20.06
2023-05-19T01:54:56.928Z,20.07
2023-05-19T01:55:55.940Z,20.06
2023-05-19T01:56:56.832Z,20.05
2023-05-19T01:57:57.005Z,20.06
2023-05-19T01:58:57.008Z,20.06
2023-05-19T01:59:55.992Z,20.06
2023-05-19T02:00:56.112Z,20.06
2023-05-19T02:01:56.065Z,20.06
2023-05-19T02:02:56.099Z,20.06
2023-05-19T02:03:57.157Z,20.06
2023-05-19T02:04:56.228Z,20.06
2023-05-19T02:05:56.234Z,20.05
2023-05-19T02:06:56.188Z,20.05
2023-05-19T02:07:56.213Z,20.05
2023-05-19T02:08:56.295Z,20.05
2023-05-19T02:09:56.301Z,20.05
2023-05-19T02:10:56.430Z,20.05
2023-05-19T02:11:56.664Z,20.05
2023-05-19T02:12:56.706Z,20.05
2023-05-19T02:13:57.438Z,20.04
2023-05-19T02:14:56.752Z,20.04
2023-05-19T02:15:57.791Z,20.05
2023-05-19T02:16:56.801Z,20.04
2023-05-19T02:17:56.872Z,20.04
2023-05-19T02:18:56.868Z,20.03
2023-05-19T02:19:57.775Z,20.04
2023-05-19T02:20:56.718Z,20.04
2023-05-19T02:21:56.753Z,20.03
2023-05-19T02:22:57.802Z,20.04
2023-05-19T02:23:57.027Z,20.04
2023-05-19T02:24:56.964Z,20.04
2023-05-19T02:25:56.912Z,20.04
2023-05-19T02:26:57.110Z,20.03
2023-05-19T02:27:58.139Z,20.03
2023-05-19T02:28:57.239Z,20.03
2023-05-19T02:29:57.063Z,20.03
2023-05-19T02:30:57.253Z,20.03
2023-05-19T02:31:57.181Z,20.03
2023-05-19T02:32:57.229Z,20.03
2023-05-19T02:33:58.378Z,20.03
2023-05-19T02:34:57.239Z,20.03
2023-05-19T02:35:58.349Z,20.03
2023-05-19T02:36:58.491Z,20.02
2023-05-19T02:37:57.399Z,20.02
2023-05-19T02:38:57.596Z,20.02
2023-05-19T02:39:57.437Z,20.03
2023-05-19T02:40:57.672Z,20.02
2023-05-19T02:41:58.531Z,20.02
2023-05-19T02:42:58.642Z,20.02
2023-05-19T02:43:58.670Z,20.02
2023-05-19T02:44:57.678Z,20.02
2023-05-19T02:45:58.716Z,20.01
2023-05-19T02:46:57.949Z,20.01
2023-05-19T02:47:57.805Z,20.01
2023-05-19T02:48:57.979Z,20.01
2023-05-19T02:49:57.818Z,20.01
2023-05-19T02:50:59.144Z,20.01
2023-05-19T02:51:58.149Z,20.01
2023-05-19T02:52:58.999Z,20.01
2023-05-19T02:53:59.095Z,20.01
2023-05-19T02:54:58.023Z,20.01
2023-05-19T02:55:59.110Z,20.01
2023-05-19T02:56:58.108Z,20.01
2023-05-19T02:57:58.245Z,20.00
2023-05-19T02:58:58.547Z,20.00
2023-05-19T02:59:58.386Z,20.00
2023-05-19T03:00:58.516Z,20.00
2023-05-19T03:01:58.490Z,20.00
2023-05-19T03:02:58.558Z,20.00
2023-05-19T03:03:58.780Z,20.00
2023-05-19T03:04:59.427Z,20.00
2023-05-19T03:05:59.451Z,20.00
2023-05-19T03:06:59.513Z,19.99
2023-05-19T03:07:59.715Z,19.99
2023-05-19T03:08:58.570Z,19.99
2023-05-19T03:09:59.710Z,19.99
2023-05-19T03:10:59.745Z,20.00
2023-05-19T03:11:58.879Z,19.98
2023-05-19T03:12:59.814Z,19.99
2023-05-19T03:13:58.997Z,19.99
2023-05-19T03:14:59.947Z,19.99
2023-05-19T03:16:00.144Z,19.99
2023-05-19T03:16:59.971Z,19.98
2023-05-19T03:18:00.091Z,19.98
2023-05-19T03:18:59.026Z,19.98
2023-05-19T03:20:00.201Z,19.98
2023-05-19T03:21:00.153Z,19.99
2023-05-19T03:21:59.236Z,19.99
2023-05-19T03:22:59.150Z,19.99
2023-05-19T03:23:59.293Z,19.98
2023-05-19T03:24:59.316Z,19.98
2023-05-19T03:25:59.281Z,19.98
2023-05-19T03:27:00.471Z,19.98
2023-05-19T03:28:00.534Z,19.98
2023-05-19T03:28:59.578Z,19.97
2023-05-19T03:29:59.523Z,19.98
2023-05-19T03:30:59.592Z,19.97
2023-05-19T03:31:59.642Z,19.97
2023-05-19T03:32:59.646Z,19.97
2023-05-19T03:33:59.697Z,19.97
2023-05-19T03:34:59.822Z,19.97
2023-05-19T03:36:00.784Z,19.97
2023-05-19T03:36:59.754Z,19.97
2023-05-19T03:37:59.925Z,19.97
2023-05-19T03:39:00.854Z,19.97
2023-05-19T03:40:00.152Z,19.97
2023-05-19T03:41:00.057Z,19.97
2023-05-19T03:41:59.957Z,19.97
2023-05-19T03:43:00.162Z,19.96
2023-05-19T03:44:01.034Z,19.96
2023-05-19T03:45:01.317Z,19.97
2023-05-19T03:46:01.162Z,19.96
2023-05-19T03:47:00.185Z,19.95
2023-05-19T03:48:01.277Z,19.95
2023-05-19T03:49:01.596Z,19.96
2023-05-19T03:50:00.271Z,19.97
2023-05-19T03:51:00.479Z,19.95
2023-05-19T03:52:01.568Z,19.95
2023-05-19T03:53:01.426Z,19.96
2023-05-19T03:54:00.522Z,19.95
2023-05-19T03:55:01.478Z,19.95
2023-05-19T03:56:01.527Z,19.95
2023-05-19T03:57:00.573Z,19.95
2023-05-19T03:58:01.609Z,19.95
2023-05-19T03:59:01.637Z,19.95
2023-05-19T04:00:00.751Z,19.95
2023-05-19T04:01:00.720Z,19.94
2023-05-19T04:02:00.873Z,19.95
2023-05-19T04:03:00.917Z,19.94
2023-05-19T04:04:01.917Z,19.95
2023-05-19T04:05:00.904Z,19.94
2023-05-19T04:06:02.040Z,19.95
2023-05-19T04:07:01.967Z,19.95
2023-05-19T04:08:02.004Z,19.94
2023-05-19T04:09:01.059Z,19.93
2023-05-19T04:10:02.099Z,19.92
2023-05-19T04:11:02.429Z,19.93
2023-05-19T04:12:02.182Z,19.94
2023-05-19T04:13:02.205Z,19.93
2023-05-19T04:14:02.259Z,19.94
2023-05-19T04:15:01.366Z,19.93
2023-05-19T04:16:01.424Z,19.93
2023-05-19T04:17:02.382Z,19.92
2023-05-19T04:18:01.481Z,19.93
2023-05-19T04:19:01.623Z,19.92
2023-05-19T04:20:01.521Z,19.92
2023-05-19T04:21:01.594Z,19.92
2023-05-19T04:22:01.630Z,19.92
2023-05-19T04:23:02.716Z,19.92
2023-05-19T04:24:01.727Z,19.92
2023-05-19T04:25:02.760Z,19.92
2023-05-19T04:26:02.855Z,19.92
2023-05-19T04:27:02.855Z,19.92
2023-05-19T04:28:02.994Z,19.91
2023-05-19T04:29:01.965Z,19.91
2023-05-19T04:30:03.026Z,19.92
2023-05-19T04:31:02.091Z,19.91
2023-05-19T04:32:03.108Z,19.92
2023-05-19T04:33:03.260Z,19.91
2023-05-19T04:34:03.206Z,19.91
2023-05-19T04:35:02.256Z,19.91
2023-05-19T04:36:03.360Z,19.91
2023-05-19T04:37:02.352Z,19.92
2023-05-19T04:38:03.431Z,19.91
2023-05-19T04:39:02.494Z,19.91
2023-05-19T04:40:03.478Z,19.91
2023-05-19T04:41:03.563Z,19.91
2023-05-19T04:42:03.619Z,19.90
2023-05-19T04:43:02.630Z,19.90
2023-05-19T04:44:03.665Z,19.91
2023-05-19T04:45:02.710Z,19.91
2023-05-19T04:46:03.775Z,19.91
2023-05-19T04:47:03.989Z,19.91
2023-05-19T04:48:04.004Z,19.90
2023-05-19T04:49:02.902Z,19.90
2023-05-19T04:50:03.963Z,19.90
2023-05-19T04:51:03.004Z,19.91
2023-05-19T04:52:03.065Z,19.90
2023-05-19T04:53:04.090Z,19.90
2023-05-19T04:54:03.153Z,19.89
2023-05-19T04:55:04.174Z,19.90
2023-05-19T04:56:04.242Z,19.90
2023-05-19T04:57:03.283Z,19.90
2023-05-19T04:58:03.363Z,19.90
2023-05-19T04:59:03.371Z,19.90
2023-05-19T05:00:03.417Z,19.89
2023-05-19T05:01:04.472Z,19.90
2023-05-19T05:02:04.578Z,19.91
2023-05-19T05:03:03.647Z,19.92
2023-05-19T05:04:03.779Z,19.92
2023-05-19T05:05:05.128Z,19.92
2023-05-19T05:06:03.829Z,19.93
2023-05-19T05:07:03.844Z,19.94
2023-05-19T05:08:04.086Z,19.95
2023-05-19T05:09:05.262Z,19.95
2023-05-19T05:10:04.865Z,19.96
2023-05-19T05:11:03.879Z,19.96
2023-05-19T05:12:04.935Z,19.96
2023-05-19T05:13:04.991Z,19.96
2023-05-19T05:14:05.190Z,19.96
2023-05-19T05:15:04.059Z,19.97
2023-05-19T05:16:04.563Z,19.97
2023-05-19T05:17:05.116Z,19.97
2023-05-19T05:18:04.193Z,19.97
2023-05-19T05:19:04.322Z,19.97
2023-05-19T05:20:04.226Z,19.98
2023-05-19T05:21:05.288Z,19.97
2023-05-19T05:22:04.363Z,19.98
2023-05-19T05:23:05.359Z,19.99
2023-05-19T05:24:05.442Z,19.98
2023-05-19T05:25:05.446Z,19.99
2023-05-19T05:26:05.500Z,19.99
2023-05-19T05:27:04.598Z,19.99
2023-05-19T05:28:04.897Z,20.00
2023-05-19T05:29:04.586Z,19.99
2023-05-19T05:30:05.616Z,20.00
2023-05-19T05:31:05.653Z,20.00
2023-05-19T05:32:04.707Z,20.00
2023-05-19T05:33:05.786Z,20.01
2023-05-19T05:34:05.921Z,20.01
2023-05-19T05:35:04.835Z,20.01
2023-05-19T05:36:05.878Z,20.02
2023-05-19T05:37:05.869Z,20.02
2023-05-19T05:38:04.914Z,20.02
2023-05-19T05:39:05.956Z,20.03
2023-05-19T05:40:06.159Z,20.03
2023-05-19T05:41:05.207Z,20.02
2023-05-19T05:42:06.141Z,20.03
2023-05-19T05:43:05.227Z,20.04
2023-05-19T05:44:05.202Z,20.04
2023-05-19T05:45:05.217Z,20.05
2023-05-19T05:46:06.298Z,20.06
2023-05-19T05:47:07.012Z,20.07
2023-05-19T05:48:05.501Z,20.08
2023-05-19T05:49:05.375Z,20.09
2023-05-19T05:50:05.366Z,20.11
2023-05-19T05:51:05.446Z,20.12
2023-05-19T05:52:06.962Z,20.13
2023-05-19T05:53:06.457Z,20.14
2023-05-19T05:54:05.469Z,20.13
2023-05-19T05:55:05.510Z,20.13
2023-05-19T05:56:06.562Z,20.14
2023-05-19T05:57:05.528Z,20.14
2023-05-19T05:58:06.650Z,20.14
2023-05-19T05:59:05.689Z,20.14
2023-05-19T06:00:05.624Z,20.15
2023-05-19T06:01:06.623Z,20.17
2023-05-19T06:02:05.766Z,20.18
2023-05-19T06:03:06.796Z,20.20
2023-05-19T06:04:06.687Z,20.22
2023-05-19T06:05:06.832Z,20.24
2023-05-19T06:06:06.756Z,20.26
2023-05-19T06:07:05.824Z,20.27
2023-05-19T06:08:05.787Z,20.28
2023-05-19T06:09:06.792Z,20.29
2023-05-19T06:10:06.809Z,20.30
2023-05-19T06:11:06.092Z,20.30
2023-05-19T06:12:06.875Z,20.30
2023-05-19T06:13:06.936Z,20.31
2023-05-19T06:14:05.968Z,20.32
2023-05-19T06:15:06.937Z,20.33
2023-05-19T06:16:06.991Z,20.33
2023-05-19T06:17:05.945Z,20.33
2023-05-19T06:18:07.006Z,20.33
2023-05-19T06:19:07.130Z,20.32
2023-05-19T06:20:06.994Z,20.32
2023-05-19T06:21:06.989Z,20.32
2023-05-19T06:22:06.014Z,20.33
2023-05-19T06:23:06.020Z,20.33
2023-05-19T06:24:07.288Z,20.34
2023-05-19T06:25:06.068Z,20.35
2023-05-19T06:26:07.093Z,20.36
2023-05-19T06:27:07.314Z,20.38
2023-05-19T06:28:07.190Z,20.40
2023-05-19T06:29:06.119Z,20.42
2023-05-19T06:30:06.120Z,20.43
2023-05-19T06:31:07.245Z,20.46
2023-05-19T06:32:07.438Z,20.48
2023-05-19T06:33:06.223Z,20.50
2023-05-19T06:34:06.202Z,20.51
2023-05-19T06:35:06.262Z,20.52
2023-05-19T06:36:07.240Z,20.53
2023-05-19T06:37:06.529Z,20.55
2023-05-19T06:38:07.299Z,20.57
2023-05-19T06:39:06.341Z,20.58
2023-05-19T06:40:07.363Z,20.60
2023-05-19T06:41:07.590Z,20.62
2023-05-19T06:42:06.448Z,20.64
2023-05-19T06:43:06.435Z,20.65
2023-05-19T06:44:07.604Z,20.66
2023-05-19T06:45:06.511Z,20.67
2023-05-19T06:46:06.616Z,20.66
2023-05-19T06:47:06.713Z,20.64
2023-05-19T06:48:06.786Z,20.63
2023-05-19T06:49:07.066Z,20.60
2023-05-19T06:50:06.759Z,20.59
2023-05-19T06:51:07.751Z,20.57
2023-05-19T06:52:07.819Z,20.56
2023-05-19T06:53:06.804Z,20.55
2023-05-19T06:54:07.857Z,20.53
2023-05-19T06:55:07.835Z,20.52
2023-05-19T06:56:07.891Z,20.52
2023-05-19T06:57:08.054Z,20.52
2023-05-19T06:58:08.020Z,20.52
2023-05-19T06:59:08.004Z,20.52
2023-05-19T07:00:08.101Z,20.52
2023-05-19T07:01:07.097Z,20.51
2023-05-19T07:02:07.192Z,20.52
2023-05-19T07:03:08.203Z,20.51
2023-05-19T07:04:07.347Z,20.51
2023-05-19T07:05:08.493Z,20.51
2023-05-19T07:06:08.598Z,20.50
2023-05-19T07:07:08.234Z,20.50
2023-05-19T07:08:08.287Z,20.50
2023-05-19T07:09:08.312Z,20.49
2023-05-19T07:10:07.362Z,20.50
2023-05-19T07:11:08.604Z,20.49
2023-05-19T07:12:07.524Z,20.49
2023-05-19T07:13:07.445Z,20.50
2023-05-19T07:14:07.464Z,20.50
2023-05-19T07:15:07.956Z,20.51
2023-05-19T07:16:08.570Z,20.52
2023-05-19T07:17:07.639Z,20.55
2023-05-19T07:18:07.755Z,20.55
2023-05-19T07:19:08.924Z,20.56
2023-05-19T07:20:07.755Z,20.60
2023-05-19T07:21:08.689Z,20.63
2023-05-19T07:22:08.802Z,20.66
2023-05-19T07:23:07.826Z,20.69
2023-05-19T07:24:08.865Z,20.73
2023-05-19T07:25:08.889Z,20.76
2023-05-19T07:26:08.945Z,20.78
2023-05-19T07:27:08.114Z,20.79
2023-05-19T07:28:09.038Z,20.80
2023-05-19T07:29:08.123Z,20.83
2023-05-19T07:30:08.362Z,20.84
2023-05-19T07:31:09.160Z,20.86
2023-05-19T07:32:09.378Z,20.88
2023-05-19T07:33:09.341Z,20.90
2023-05-19T07:34:09.378Z,20.91
2023-05-19T07:35:08.312Z,20.92
2023-05-19T07:36:09.535Z,20.92
2023-05-19T07:37:09.540Z,20.93
2023-05-19T07:38:08.594Z,20.96
2023-05-19T07:39:08.874Z,20.97
2023-05-19T07:40:08.519Z,20.98
2023-05-19T07:41:09.539Z,20.99
2023-05-19T07:42:09.669Z,21.00
2023-05-19T07:43:08.599Z,21.02
2023-05-19T07:44:09.701Z,21.02
2023-05-19T07:45:08.657Z,21.04
2023-05-19T07:46:08.821Z,21.06
2023-05-19T07:47:09.744Z,21.07
2023-05-19T07:48:08.946Z,21.07
2023-05-19T07:49:08.790Z,21.07
2023-05-19T07:50:09.890Z,21.05
2023-05-19T07:51:09.792Z,21.06
2023-05-19T07:52:09.833Z,21.08
2023-05-19T07:53:09.857Z,21.08
2023-05-19T07:54:09.904Z,21.09
2023-05-19T07:55:08.883Z,21.11
2023-05-19T07:56:08.917Z,21.13
2023-05-19T07:57:09.921Z,21.15
2023-05-19T07:58:09.949Z,21.18
2023-05-19T07:59:10.039Z,21.23
2023-05-19T08:00:09.020Z,21.27
2023-05-19T08:01:09.006Z,21.34
2023-05-19T08:02:10.095Z,21.43
2023-05-19T08:03:09.398Z,21.49
2023-05-19T08:04:11.044Z,21.53
2023-05-19T08:05:09.087Z,21.51
2023-05-19T08:06:10.060Z,21.51
2023-05-19T08:07:09.049Z,21.51
2023-05-19T08:08:09.129Z,21.51
2023-05-19T08:09:10.083Z,21.53
2023-05-19T08:10:10.029Z,21.58
2023-05-19T08:11:10.019Z,21.61
2023-05-19T08:12:10.023Z,21.65
2023-05-19T08:13:09.010Z,21.67
2023-05-19T08:14:10.047Z,21.70
2023-05-19T08:15:10.173Z,21.68
2023-05-19T08:16:10.122Z,21.66
2023-05-19T08:17:10.063Z,21.65
2023-05-19T08:18:10.097Z,21.62
2023-05-19T08:19:10.041Z,21.60
2023-05-19T08:20:10.254Z,21.58
2023-05-19T08:21:08.966Z,21.58
2023-05-19T08:22:10.161Z,21.57
2023-05-19T08:23:08.953Z,21.55
2023-05-19T08:24:09.949Z,21.57
2023-05-19T08:25:09.952Z,21.59
2023-05-19T08:26:09.925Z,21.61
2023-05-19T08:27:09.039Z,21.61
2023-05-19T08:28:09.902Z,21.59
2023-05-19T08:29:10.064Z,21.58
2023-05-19T08:30:10.228Z,21.60
2023-05-19T08:31:09.925Z,21.59
2023-05-19T08:32:11.640Z,21.59
2023-05-19T08:33:08.925Z,21.58
2023-05-19T08:34:08.996Z,21.60
2023-05-19T08:35:10.106Z,21.62
2023-05-19T08:36:08.897Z,21.63
2023-05-19T08:37:09.878Z,21.65
2023-05-19T08:38:08.911Z,21.67
2023-05-19T08:39:09.869Z,21.68
2023-05-19T08:40:08.866Z,21.68
2023-05-19T08:41:09.977Z,21.69
2023-05-19T08:42:09.857Z,21.69
2023-05-19T08:43:09.822Z,21.71
2023-05-19T08:44:08.830Z,21.72
2023-05-19T08:45:08.849Z,21.73
2023-05-19T08:46:08.847Z,21.74
2023-05-19T08:47:09.867Z,21.77
2023-05-19T08:48:09.792Z,21.79
2023-05-19T08:49:08.784Z,21.82
2023-05-19T08:50:08.768Z,21.84
2023-05-19T08:51:08.754Z,21.88
2023-05-19T08:52:09.787Z,21.94
2023-05-19T08:53:15.281Z,21.99
2023-05-19T08:54:09.746Z,22.07
2023-05-19T08:55:09.896Z,22.15
2023-05-19T08:56:09.774Z,22.20
2023-05-19T08:57:08.709Z,22.17
2023-05-19T08:58:08.866Z,22.15
2023-05-19T08:59:09.696Z,22.19
2023-05-19T09:00:08.702Z,22.20
2023-05-19T09:01:09.814Z,22.21
2023-05-19T09:02:09.680Z,22.23
2023-05-19T09:04:09.074Z,22.26
2023-05-19T09:05:10.058Z,22.31
2023-05-19T09:06:09.046Z,22.37
2023-05-19T09:07:10.071Z,22.44
2023-05-19T09:08:09.215Z,22.48
2023-05-19T09:09:10.127Z,22.54
2023-05-19T09:10:09.256Z,22.54
2023-05-19T09:11:09.221Z,22.55
2023-05-19T09:12:09.205Z,22.59
2023-05-19T09:13:10.233Z,22.63
2023-05-19T09:14:09.246Z,22.69
2023-05-19T09:15:10.286Z,22.71
2023-05-19T09:16:10.289Z,22.71
2023-05-19T09:17:09.388Z,22.75
2023-05-19T09:18:09.343Z,22.76
2023-05-19T09:19:09.381Z,22.78
2023-05-19T09:20:09.385Z,22.81
2023-05-19T09:21:10.384Z,22.84
2023-05-19T09:22:09.443Z,22.87
2023-05-19T09:23:09.405Z,22.87
2023-05-19T09:24:10.464Z,22.87
2023-05-19T09:25:10.551Z,22.88
2023-05-19T09:26:10.458Z,22.88
2023-05-19T09:27:09.520Z,22.90
2023-05-19T09:28:09.492Z,22.91
2023-05-19T09:29:09.504Z,22.92
2023-05-19T09:30:10.539Z,22.91
2023-05-19T09:31:09.525Z,22.90
2023-05-19T09:32:10.584Z,22.91
2023-05-19T09:33:10.608Z,22.90
2023-05-19T09:34:10.561Z,22.92
2023-05-19T09:35:09.571Z,22.92
2023-05-19T09:36:09.565Z,22.91
2023-05-19T09:37:10.619Z,22.93
2023-05-19T09:38:09.595Z,22.94
2023-05-19T09:39:10.613Z,22.98
2023-05-19T09:40:11.252Z,22.99
2023-05-19T09:41:10.618Z,22.99
2023-05-19T09:42:09.652Z,23.03
2023-05-19T09:43:10.657Z,23.06
2023-05-19T09:44:09.600Z,23.10
2023-05-19T09:45:10.731Z,23.16
2023-05-19T09:46:11.990Z,23.21
2023-05-19T09:47:10.600Z,23.25
2023-05-19T09:48:09.621Z,23.31
2023-05-19T09:49:09.571Z,23.34
2023-05-19T09:50:10.569Z,23.37
2023-05-19T09:51:10.814Z,23.39
2023-05-19T09:52:11.211Z,23.41
2023-05-19T09:53:09.529Z,23.41
2023-05-19T09:54:10.512Z,23.42
2023-05-19T09:55:10.533Z,23.44
2023-05-19T09:56:10.530Z,23.46
2023-05-19T09:57:09.496Z,23.47
2023-05-19T09:58:12.131Z,23.47
2023-05-19T09:59:09.567Z,23.49
2023-05-19T10:00:10.477Z,23.48
2023-05-19T10:01:09.499Z,23.45
2023-05-19T10:02:10.467Z,23.41
2023-05-19T10:03:10.506Z,23.40
2023-05-19T10:04:10.456Z,23.40
2023-05-19T10:05:09.553Z,23.38
2023-05-19T10:06:10.590Z,23.36
2023-05-19T10:07:10.449Z,23.34
2023-05-19T10:08:09.436Z,23.33
2023-05-19T10:09:10.426Z,23.32
2023-05-19T10:10:09.416Z,23.32
2023-05-19T10:11:09.393Z,23.33
2023-05-19T10:12:10.435Z,23.35
2023-05-19T10:13:10.538Z,23.38
2023-05-19T10:14:10.394Z,23.41
2023-05-19T10:15:09.419Z,23.43
2023-05-19T10:16:09.444Z,23.44
2023-05-19T10:17:10.360Z,23.39
2023-05-19T10:18:10.384Z,23.38
2023-05-19T10:19:09.405Z,23.40
2023-05-19T10:20:09.349Z,23.41
2023-05-19T10:21:09.626Z,23.43
2023-05-19T10:22:09.353Z,23.44
2023-05-19T10:23:09.400Z,23.47
2023-05-19T10:24:11.565Z,23.49
2023-05-19T10:25:10.384Z,23.51
2023-05-19T10:26:10.312Z,23.53
2023-05-19T10:27:10.357Z,23.55
2023-05-19T10:28:09.349Z,23.56
2023-05-19T10:29:10.292Z,23.56
2023-05-19T10:30:12.427Z,23.55
2023-05-19T10:31:10.293Z,23.53
2023-05-19T10:32:09.287Z,23.53
2023-05-19T10:33:09.490Z,23.52
2023-05-19T10:34:09.263Z,23.54
2023-05-19T10:35:09.361Z,23.56
2023-05-19T10:36:09.266Z,23.57
2023-05-19T10:37:09.307Z,23.57
2023-05-19T10:38:10.350Z,23.58
2023-05-19T10:39:09.234Z,23.58
2023-05-19T10:40:09.230Z,23.59
2023-05-19T10:41:09.202Z,23.60
2023-05-19T10:42:09.203Z,23.62
2023-05-19T10:43:10.205Z,23.64
2023-05-19T10:44:10.313Z,23.63
2023-05-19T10:45:09.216Z,23.64
2023-05-19T10:46:10.181Z,23.65
2023-05-19T10:47:10.207Z,23.66
2023-05-19T10:48:09.209Z,23.63
2023-05-19T10:49:09.261Z,23.64
2023-05-19T10:50:10.191Z,23.63
2023-05-19T10:51:13.329Z,23.61
2023-05-19T10:52:09.138Z,23.60
2023-05-19T10:53:09.138Z,23.60
2023-05-19T10:54:12.204Z,23.58
2023-05-19T10:55:10.210Z,23.58
2023-05-19T10:56:10.126Z,23.57
2023-05-19T10:57:10.121Z,23.56
2023-05-19T10:58:09.118Z,23.56
2023-05-19T10:59:10.183Z,23.55
2023-05-19T11:00:09.135Z,23.55
2023-05-19T11:01:09.405Z,23.55
2023-05-19T11:02:10.326Z,23.56
2023-05-19T11:03:09.108Z,23.58
2023-05-19T11:04:09.122Z,23.59
2023-05-19T11:05:10.082Z,23.60
2023-05-19T11:06:10.082Z,23.59
2023-05-19T11:07:10.205Z,23.61
2023-05-19T11:08:10.115Z,23.62
2023-05-19T11:09:09.050Z,23.62
2023-05-19T11:10:10.042Z,23.63
2023-05-19T11:11:09.007Z,23.64
2023-05-19T11:12:09.003Z,23.65
2023-05-19T11:13:10.013Z,23.65
2023-05-19T11:14:10.048Z,23.66
2023-05-19T11:15:10.021Z,23.67
2023-05-19T11:16:10.052Z,23.69
2023-05-19T11:17:09.976Z,23.71
2023-05-19T11:18:08.987Z,23.72
2023-05-19T11:19:10.067Z,23.73
2023-05-19T11:20:10.000Z,23.76
2023-05-19T11:21:09.025Z,23.78
2023-05-19T11:22:08.948Z,23.82
2023-05-19T11:23:09.993Z,23.85
2023-05-19T11:24:09.930Z,23.87
2023-05-19T11:25:08.930Z,23.89
2023-05-19T11:26:10.075Z,23.90
2023-05-19T11:27:08.910Z,23.90
2023-05-19T11:28:09.914Z,23.91
2023-05-19T11:29:10.010Z,23.91
2023-05-19T11:30:08.887Z,23.91
2023-05-19T11:31:08.891Z,23.91
2023-05-19T11:32:10.158Z,23.92
2023-05-19T11:33:08.975Z,23.93
2023-05-19T11:34:08.990Z,23.92
2023-05-19T11:35:09.973Z,23.93
2023-05-19T11:36:08.984Z,23.95
2023-05-19T11:37:10.113Z,23.97
2023-05-19T11:38:09.158Z,23.98
2023-05-19T11:39:09.049Z,23.98
2023-05-19T11:40:09.375Z,23.99
2023-05-19T11:41:10.343Z,24.01
2023-05-19T11:42:09.270Z,24.03
2023-05-19T11:43:10.199Z,24.06
2023-05-19T11:44:10.223Z,24.07
2023-05-19T11:45:09.247Z,24.08
2023-05-19T11:46:10.309Z,24.10
2023-05-19T11:47:10.336Z,24.11
2023-05-19T11:48:10.420Z,24.13
2023-05-19T11:49:09.330Z,24.16
2023-05-19T11:50:09.360Z,24.18
2023-05-19T11:51:10.642Z,24.19
2023-05-19T11:52:09.445Z,24.23
2023-05-19T11:53:09.670Z,24.25
2023-05-19T11:54:09.506Z,24.26
2023-05-19T11:55:10.513Z,24.27
2023-05-19T11:56:09.824Z,24.28
2023-05-19T11:57:10.602Z,24.27
2023-05-19T11:58:09.628Z,24.28
2023-05-19T11:59:10.833Z,24.29
2023-05-19T12:00:10.661Z,24.30
2023-05-19T12:01:09.632Z,24.33
2023-05-19T12:02:10.709Z,24.32
2023-05-19T12:03:10.923Z,24.34
2023-05-19T12:04:09.705Z,24.35
2023-05-19T12:05:10.990Z,24.36
2023-05-19T12:06:10.921Z,24.37
2023-05-19T12:07:09.752Z,24.38
2023-05-19T12:08:10.832Z,24.39
2023-05-19T12:09:09.801Z,24.40
2023-05-19T12:10:09.844Z,24.40
2023-05-19T12:11:10.124Z,24.43
2023-05-19T12:12:09.821Z,24.43
2023-05-19T12:13:10.563Z,24.45
2023-05-19T12:14:10.874Z,24.47
2023-05-19T12:15:11.065Z,24.47
2023-05-19T12:16:10.904Z,24.50
2023-05-19T12:17:10.957Z,24.50
2023-05-19T12:18:10.253Z,24.51
2023-05-19T12:19:09.977Z,24.51
2023-05-19T12:20:09.969Z,24.54
2023-05-19T12:21:11.008Z,24.56
2023-05-19T12:22:11.224Z,24.56
2023-05-19T12:23:11.069Z,24.58
2023-05-19T12:24:11.001Z,24.59
2023-05-19T12:25:11.233Z,24.60
2023-05-19T12:26:10.261Z,24.66
2023-05-19T12:27:10.127Z,24.70
2023-05-19T12:28:10.253Z,24.75
2023-05-19T12:29:10.126Z,24.81
2023-05-19T12:30:10.221Z,24.83
2023-05-19T12:31:11.230Z,24.86
2023-05-19T12:32:10.490Z,24.90
2023-05-19T12:33:10.394Z,24.91
2023-05-19T12:34:11.419Z,24.93
2023-05-19T12:35:10.731Z,24.93
2023-05-19T12:36:11.611Z,24.93
2023-05-19T12:37:10.503Z,24.92
2023-05-19T12:38:11.700Z,24.91
2023-05-19T12:39:10.593Z,24.91
2023-05-19T12:40:11.562Z,24.89
2023-05-19T12:41:11.636Z,24.87
2023-05-19T12:42:10.887Z,24.86
2023-05-19T12:43:10.730Z,24.87
2023-05-19T12:44:11.814Z,24.87
2023-05-19T12:45:10.763Z,24.87
2023-05-19T12:46:10.772Z,24.89
2023-05-19T12:47:10.928Z,24.90
2023-05-19T12:48:12.159Z,24.92
2023-05-19T12:49:10.866Z,24.92
2023-05-19T12:50:10.997Z,24.96
2023-05-19T12:51:11.164Z,24.97
2023-05-19T12:52:13.178Z,24.97
2023-05-19T12:53:11.909Z,24.99
2023-05-19T12:54:11.982Z,25.01